sensor_id;sensor_type;location;lat;lon;timestamp;P1;durP1;ratioP1;P2;durP2;ratioP2
12407;SDS011;6268;48.188;17.134;2023-05-10T00:02:01;4.95;;;2.25;;
12407;SDS011;6268;48.188;17.134;2023-05-10T00:04:30;2.63;;;2.42;;
12407;SDS011;6268;48.188;17.134;2023-05-10T00:06:59;5.05;;;2.72;;
12407;SDS011;6268;48.188;17.134;2023-05-10T00:09:28;2.95;;;2.72;;
12407;SDS011;6268;48.188;17.134;2023-05-10T00:11:58;3.13;;;2.50;;
12407;SDS011;6268;48.188;17.134;2023-05-10T00:14:26;2.30;;;2.17;;
12407;SDS011;6268;48.188;17.134;2023-05-10T00:16:55;3.08;;;2.60;;
12407;SDS011;6268;48.188;17.134;2023-05-10T00:19:24;2.80;;;2.60;;
12407;SDS011;6268;48.188;17.134;2023-05-10T00:21:53;3.05;;;2.85;;
12407;SDS011;6268;48.188;17.134;2023-05-10T00:24:22;2.83;;;2.50;;
12407;SDS011;6268;48.188;17.134;2023-05-10T00:26:51;2.90;;;2.70;;
12407;SDS011;6268;48.188;17.134;2023-05-10T00:29:21;3.70;;;2.70;;
12407;SDS011;6268;48.188;17.134;2023-05-10T00:31:50;3.05;;;2.85;;
12407;SDS011;6268;48.188;17.134;2023-05-10T00:34:19;3.83;;;3.05;;
12407;SDS011;6268;48.188;17.134;2023-05-10T00:36:48;3.65;;;2.58;;
12407;SDS011;6268;48.188;17.134;2023-05-10T00:39:17;2.90;;;2.70;;
12407;SDS011;6268;48.188;17.134;2023-05-10T00:41:45;2.90;;;2.75;;
12407;SDS011;6268;48.188;17.134;2023-05-10T00:44:14;2.42;;;2.33;;
12407;SDS011;6268;48.188;17.134;2023-05-10T00:46:44;3.58;;;2.65;;
12407;SDS011;6268;48.188;17.134;2023-05-10T00:49:14;3.10;;;2.90;;
12407;SDS011;6268;48.188;17.134;2023-05-10T00:51:44;2.83;;;2.63;;
12407;SDS011;6268;48.188;17.134;2023-05-10T00:54:14;2.92;;;2.83;;
12407;SDS011;6268;48.188;17.134;2023-05-10T00:56:43;3.00;;;2.80;;
12407;SDS011;6268;48.188;17.134;2023-05-10T00:59:15;2.80;;;2.60;;
12407;SDS011;6268;48.188;17.134;2023-05-10T01:01:46;2.97;;;2.88;;
12407;SDS011;6268;48.188;17.134;2023-05-10T01:04:15;3.47;;;3.20;;
12407;SDS011;6268;48.188;17.134;2023-05-10T01:06:44;3.55;;;3.25;;
12407;SDS011;6268;48.188;17.134;2023-05-10T01:09:13;3.38;;;3.08;;
12407;SDS011;6268;48.188;17.134;2023-05-10T01:11:42;3.47;;;3.28;;
12407;SDS011;6268;48.188;17.134;2023-05-10T01:14:11;4.97;;;3.17;;
12407;SDS011;6268;48.188;17.134;2023-05-10T01:16:40;3.30;;;3.00;;
12407;SDS011;6268;48.188;17.134;2023-05-10T01:19:12;3.70;;;3.40;;
12407;SDS011;6268;48.188;17.134;2023-05-10T01:21:49;3.20;;;3.00;;
12407;SDS011;6268;48.188;17.134;2023-05-10T01:28:06;3.17;;;2.97;;
12407;SDS011;6268;48.188;17.134;2023-05-10T01:31:03;3.15;;;2.95;;
12407;SDS011;6268;48.188;17.134;2023-05-10T01:34:00;3.28;;;3.08;;
12407;SDS011;6268;48.188;17.134;2023-05-10T01:36:38;3.20;;;3.00;;
12407;SDS011;6268;48.188;17.134;2023-05-10T01:39:15;3.22;;;3.03;;
12407;SDS011;6268;48.188;17.134;2023-05-10T01:41:54;3.88;;;3.20;;
12407;SDS011;6268;48.188;17.134;2023-05-10T01:44:33;3.00;;;2.80;;
12407;SDS011;6268;48.188;17.134;2023-05-10T01:47:09;3.40;;;3.20;;
12407;SDS011;6268;48.188;17.134;2023-05-10T01:49:45;4.07;;;3.22;;
12407;SDS011;6268;48.188;17.134;2023-05-10T01:52:18;3.30;;;3.10;;
12407;SDS011;6268;48.188;17.134;2023-05-10T01:54:59;4.60;;;3.20;;
12407;SDS011;6268;48.188;17.134;2023-05-10T01:57:32;2.97;;;2.88;;
12407;SDS011;6268;48.188;17.134;2023-05-10T02:00:06;3.70;;;3.50;;
12407;SDS011;6268;48.188;17.134;2023-05-10T02:02:38;3.30;;;3.00;;
12407;SDS011;6268;48.188;17.134;2023-05-10T02:05:11;3.10;;;2.90;;
12407;SDS011;6268;48.188;17.134;2023-05-10T02:07:42;3.10;;;2.90;;
12407;SDS011;6268;48.188;17.134;2023-05-10T02:10:13;3.50;;;3.20;;
12407;SDS011;6268;48.188;17.134;2023-05-10T02:12:44;3.70;;;3.40;;
12407;SDS011;6268;48.188;17.134;2023-05-10T02:15:17;3.45;;;3.20;;
12407;SDS011;6268;48.188;17.134;2023-05-10T02:17:51;3.42;;;3.17;;
12407;SDS011;6268;48.188;17.134;2023-05-10T02:20:25;3.80;;;3.50;;
12407;SDS011;6268;48.188;17.134;2023-05-10T02:22:55;3.60;;;3.30;;
12407;SDS011;6268;48.188;17.134;2023-05-10T02:25:25;4.57;;;3.50;;
12407;SDS011;6268;48.188;17.134;2023-05-10T02:27:56;3.15;;;2.95;;
12407;SDS011;6268;48.188;17.134;2023-05-10T02:30:29;3.70;;;3.50;;
12407;SDS011;6268;48.188;17.134;2023-05-10T02:33:01;3.60;;;3.38;;
12407;SDS011;6268;48.188;17.134;2023-05-10T02:35:33;6.70;;;3.65;;
12407;SDS011;6268;48.188;17.134;2023-05-10T02:38:04;3.72;;;3.45;;
12407;SDS011;6268;48.188;17.134;2023-05-10T02:40:36;6.47;;;3.88;;
12407;SDS011;6268;48.188;17.134;2023-05-10T02:43:06;3.97;;;3.65;;
12407;SDS011;6268;48.188;17.134;2023-05-10T02:45:41;4.30;;;3.90;;
12407;SDS011;6268;48.188;17.134;2023-05-10T02:48:13;5.68;;;4.00;;
12407;SDS011;6268;48.188;17.134;2023-05-10T02:50:43;4.20;;;3.88;;
12407;SDS011;6268;48.188;17.134;2023-05-10T02:53:19;3.67;;;3.38;;
12407;SDS011;6268;48.188;17.134;2023-05-10T02:55:56;4.50;;;3.92;;
12407;SDS011;6268;48.188;17.134;2023-05-10T02:58:30;3.70;;;3.40;;
12407;SDS011;6268;48.188;17.134;2023-05-10T03:00:59;3.90;;;3.60;;
12407;SDS011;6268;48.188;17.134;2023-05-10T03:03:28;4.30;;;3.90;;
12407;SDS011;6268;48.188;17.134;2023-05-10T03:05:58;4.22;;;3.90;;
12407;SDS011;6268;48.188;17.134;2023-05-10T03:08:27;4.05;;;3.85;;
12407;SDS011;6268;48.188;17.134;2023-05-10T03:11:01;4.35;;;3.42;;
12407;SDS011;6268;48.188;17.134;2023-05-10T03:13:54;4.32;;;4.00;;
12407;SDS011;6268;48.188;17.134;2023-05-10T03:16:40;3.90;;;3.70;;
12407;SDS011;6268;48.188;17.134;2023-05-10T03:19:16;4.80;;;4.25;;
12407;SDS011;6268;48.188;17.134;2023-05-10T03:21:53;4.50;;;4.20;;
12407;SDS011;6268;48.188;17.134;2023-05-10T03:24:31;4.60;;;4.30;;
12407;SDS011;6268;48.188;17.134;2023-05-10T03:27:05;4.40;;;4.10;;
12407;SDS011;6268;48.188;17.134;2023-05-10T03:29:35;4.25;;;3.85;;
12407;SDS011;6268;48.188;17.134;2023-05-10T03:32:05;4.78;;;4.38;;
12407;SDS011;6268;48.188;17.134;2023-05-10T03:34:35;4.90;;;4.53;;
12407;SDS011;6268;48.188;17.134;2023-05-10T03:37:11;4.95;;;4.55;;
12407;SDS011;6268;48.188;17.134;2023-05-10T03:39:40;4.90;;;4.57;;
12407;SDS011;6268;48.188;17.134;2023-05-10T03:42:09;5.30;;;4.35;;
12407;SDS011;6268;48.188;17.134;2023-05-10T03:44:38;5.75;;;4.88;;
12407;SDS011;6268;48.188;17.134;2023-05-10T03:47:07;4.72;;;4.32;;
12407;SDS011;6268;48.188;17.134;2023-05-10T03:49:36;4.72;;;4.38;;
12407;SDS011;6268;48.188;17.134;2023-05-10T03:52:05;5.05;;;4.65;;
12407;SDS011;6268;48.188;17.134;2023-05-10T03:54:35;7.57;;;5.70;;
12407;SDS011;6268;48.188;17.134;2023-05-10T03:57:04;5.07;;;4.70;;
12407;SDS011;6268;48.188;17.134;2023-05-10T03:59:33;5.32;;;4.78;;
12407;SDS011;6268;48.188;17.134;2023-05-10T04:02:01;7.20;;;6.60;;
12407;SDS011;6268;48.188;17.134;2023-05-10T04:04:30;4.60;;;4.30;;
12407;SDS011;6268;48.188;17.134;2023-05-10T04:06:59;4.30;;;4.03;;
12407;SDS011;6268;48.188;17.134;2023-05-10T04:09:28;4.85;;;4.55;;
12407;SDS011;6268;48.188;17.134;2023-05-10T04:11:58;6.55;;;4.93;;
12407;SDS011;6268;48.188;17.134;2023-05-10T04:14:28;6.05;;;4.10;;
12407;SDS011;6268;48.188;17.134;2023-05-10T04:16:57;6.70;;;4.50;;
12407;SDS011;6268;48.188;17.134;2023-05-10T04:19:28;4.03;;;3.80;;
12407;SDS011;6268;48.188;17.134;2023-05-10T04:21:58;4.60;;;4.30;;
12407;SDS011;6268;48.188;17.134;2023-05-10T04:24:26;4.38;;;4.07;;
12407;SDS011;6268;48.188;17.134;2023-05-10T04:26:55;5.22;;;4.72;;
12407;SDS011;6268;48.188;17.134;2023-05-10T04:29:25;4.75;;;4.20;;
12407;SDS011;6268;48.188;17.134;2023-05-10T04:31:54;4.60;;;4.20;;
12407;SDS011;6268;48.188;17.134;2023-05-10T04:34:23;5.07;;;4.60;;
12407;SDS011;6268;48.188;17.134;2023-05-10T04:36:52;4.60;;;4.30;;
12407;SDS011;6268;48.188;17.134;2023-05-10T04:39:21;5.50;;;5.00;;
12407;SDS011;6268;48.188;17.134;2023-05-10T04:41:50;4.90;;;4.43;;
12407;SDS011;6268;48.188;17.134;2023-05-10T04:44:20;4.38;;;4.03;;
12407;SDS011;6268;48.188;17.134;2023-05-10T04:46:48;4.93;;;4.63;;
12407;SDS011;6268;48.188;17.134;2023-05-10T04:49:17;4.97;;;4.57;;
12407;SDS011;6268;48.188;17.134;2023-05-10T04:51:46;5.03;;;4.72;;
12407;SDS011;6268;48.188;17.134;2023-05-10T04:54:15;6.78;;;4.85;;
12407;SDS011;6268;48.188;17.134;2023-05-10T04:56:43;7.05;;;5.20;;
12407;SDS011;6268;48.188;17.134;2023-05-10T04:59:12;9.38;;;5.93;;
12407;SDS011;6268;48.188;17.134;2023-05-10T05:01:42;8.77;;;5.25;;
12407;SDS011;6268;48.188;17.134;2023-05-10T05:04:11;6.45;;;4.68;;
12407;SDS011;6268;48.188;17.134;2023-05-10T05:06:41;17.13;;;7.53;;
12407;SDS011;6268;48.188;17.134;2023-05-10T05:09:09;5.68;;;4.88;;
12407;SDS011;6268;48.188;17.134;2023-05-10T05:11:38;4.90;;;4.53;;
12407;SDS011;6268;48.188;17.134;2023-05-10T05:14:07;5.20;;;4.57;;
12407;SDS011;6268;48.188;17.134;2023-05-10T05:16:36;4.53;;;4.13;;
12407;SDS011;6268;48.188;17.134;2023-05-10T05:19:06;5.20;;;4.75;;
12407;SDS011;6268;48.188;17.134;2023-05-10T05:21:35;7.35;;;4.32;;
12407;SDS011;6268;48.188;17.134;2023-05-10T05:24:04;4.72;;;3.72;;
12407;SDS011;6268;48.188;17.134;2023-05-10T05:26:34;6.45;;;4.50;;
12407;SDS011;6268;48.188;17.134;2023-05-10T05:29:03;4.68;;;4.20;;
12407;SDS011;6268;48.188;17.134;2023-05-10T05:31:31;5.53;;;3.90;;
12407;SDS011;6268;48.188;17.134;2023-05-10T05:34:02;5.35;;;4.93;;
12407;SDS011;6268;48.188;17.134;2023-05-10T05:36:32;6.07;;;4.47;;
12407;SDS011;6268;48.188;17.134;2023-05-10T05:39:04;5.30;;;4.70;;
12407;SDS011;6268;48.188;17.134;2023-05-10T05:41:33;4.88;;;4.38;;
12407;SDS011;6268;48.188;17.134;2023-05-10T05:44:02;7.45;;;4.13;;
12407;SDS011;6268;48.188;17.134;2023-05-10T05:46:31;9.88;;;4.95;;
12407;SDS011;6268;48.188;17.134;2023-05-10T05:49:00;5.38;;;4.70;;
12407;SDS011;6268;48.188;17.134;2023-05-10T05:51:28;6.35;;;4.78;;
12407;SDS011;6268;48.188;17.134;2023-05-10T05:53:58;4.75;;;4.35;;
12407;SDS011;6268;48.188;17.134;2023-05-10T05:56:27;5.60;;;5.10;;
12407;SDS011;6268;48.188;17.134;2023-05-10T05:58:56;8.55;;;6.25;;
12407;SDS011;6268;48.188;17.134;2023-05-10T06:01:24;3.92;;;3.40;;
12407;SDS011;6268;48.188;17.134;2023-05-10T06:03:53;6.82;;;6.22;;
12407;SDS011;6268;48.188;17.134;2023-05-10T06:06:22;5.65;;;5.13;;
12407;SDS011;6268;48.188;17.134;2023-05-10T06:08:51;5.88;;;5.38;;
12407;SDS011;6268;48.188;17.134;2023-05-10T06:11:21;5.70;;;5.10;;
12407;SDS011;6268;48.188;17.134;2023-05-10T06:13:50;5.35;;;4.88;;
12407;SDS011;6268;48.188;17.134;2023-05-10T06:16:19;5.22;;;4.82;;
12407;SDS011;6268;48.188;17.134;2023-05-10T06:18:47;5.07;;;4.60;;
12407;SDS011;6268;48.188;17.134;2023-05-10T06:21:16;5.35;;;4.85;;
12407;SDS011;6268;48.188;17.134;2023-05-10T06:23:45;5.20;;;4.80;;
12407;SDS011;6268;48.188;17.134;2023-05-10T06:26:14;5.00;;;4.63;;
12407;SDS011;6268;48.188;17.134;2023-05-10T06:28:44;5.50;;;5.00;;
12407;SDS011;6268;48.188;17.134;2023-05-10T06:31:13;5.20;;;4.80;;
12407;SDS011;6268;48.188;17.134;2023-05-10T06:33:42;7.47;;;5.20;;
12407;SDS011;6268;48.188;17.134;2023-05-10T06:36:11;6.20;;;5.60;;
12407;SDS011;6268;48.188;17.134;2023-05-10T06:38:40;5.95;;;4.85;;
12407;SDS011;6268;48.188;17.134;2023-05-10T06:41:09;5.15;;;4.80;;
12407;SDS011;6268;48.188;17.134;2023-05-10T06:43:38;4.95;;;4.45;;
12407;SDS011;6268;48.188;17.134;2023-05-10T06:46:09;5.72;;;5.03;;
12407;SDS011;6268;48.188;17.134;2023-05-10T06:48:38;5.38;;;4.85;;
12407;SDS011;6268;48.188;17.134;2023-05-10T06:51:07;5.10;;;4.60;;
12407;SDS011;6268;48.188;17.134;2023-05-10T06:53:35;6.15;;;4.40;;
12407;SDS011;6268;48.188;17.134;2023-05-10T06:56:04;5.95;;;5.45;;
12407;SDS011;6268;48.188;17.134;2023-05-10T06:58:33;5.40;;;5.00;;
12407;SDS011;6268;48.188;17.134;2023-05-10T07:01:02;5.20;;;4.68;;
12407;SDS011;6268;48.188;17.134;2023-05-10T07:03:33;4.57;;;4.28;;
12407;SDS011;6268;48.188;17.134;2023-05-10T07:06:02;16.92;;;11.57;;
12407;SDS011;6268;48.188;17.134;2023-05-10T07:08:41;8.82;;;7.32;;
12407;SDS011;6268;48.188;17.134;2023-05-10T07:11:10;4.50;;;4.20;;
12407;SDS011;6268;48.188;17.134;2023-05-10T07:13:39;4.43;;;4.13;;
12407;SDS011;6268;48.188;17.134;2023-05-10T07:16:10;4.50;;;4.20;;
12407;SDS011;6268;48.188;17.134;2023-05-10T07:18:41;4.03;;;3.72;;
12407;SDS011;6268;48.188;17.134;2023-05-10T07:21:09;5.13;;;4.22;;
12407;SDS011;6268;48.188;17.134;2023-05-10T07:23:38;4.68;;;4.25;;
12407;SDS011;6268;48.188;17.134;2023-05-10T07:26:10;6.03;;;4.63;;
12407;SDS011;6268;48.188;17.134;2023-05-10T07:28:39;6.85;;;5.00;;
12407;SDS011;6268;48.188;17.134;2023-05-10T07:31:07;5.63;;;4.50;;
12407;SDS011;6268;48.188;17.134;2023-05-10T07:33:36;4.88;;;4.50;;
12407;SDS011;6268;48.188;17.134;2023-05-10T07:36:07;5.07;;;4.68;;
12407;SDS011;6268;48.188;17.134;2023-05-10T07:38:36;4.90;;;4.50;;
12407;SDS011;6268;48.188;17.134;2023-05-10T07:41:06;3.92;;;3.63;;
12407;SDS011;6268;48.188;17.134;2023-05-10T07:43:35;3.92;;;3.70;;
12407;SDS011;6268;48.188;17.134;2023-05-10T07:46:04;5.47;;;4.35;;
12407;SDS011;6268;48.188;17.134;2023-05-10T07:48:33;4.60;;;4.20;;
12407;SDS011;6268;48.188;17.134;2023-05-10T07:51:02;4.18;;;3.88;;
12407;SDS011;6268;48.188;17.134;2023-05-10T07:53:33;5.20;;;4.05;;
12407;SDS011;6268;48.188;17.134;2023-05-10T07:58:49;3.92;;;3.50;;
12407;SDS011;6268;48.188;17.134;2023-05-10T08:01:19;7.20;;;4.10;;
12407;SDS011;6268;48.188;17.134;2023-05-10T08:03:48;3.88;;;3.63;;
12407;SDS011;6268;48.188;17.134;2023-05-10T08:06:18;5.00;;;2.83;;
12407;SDS011;6268;48.188;17.134;2023-05-10T08:08:49;4.18;;;3.10;;
12407;SDS011;6268;48.188;17.134;2023-05-10T08:11:18;2.88;;;2.67;;
12407;SDS011;6268;48.188;17.134;2023-05-10T08:13:48;4.20;;;3.75;;
12407;SDS011;6268;48.188;17.134;2023-05-10T08:16:18;3.58;;;3.38;;
12407;SDS011;6268;48.188;17.134;2023-05-10T08:18:47;3.50;;;3.30;;
12407;SDS011;6268;48.188;17.134;2023-05-10T08:21:17;3.90;;;3.35;;
12407;SDS011;6268;48.188;17.134;2023-05-10T08:23:45;3.38;;;3.08;;
12407;SDS011;6268;48.188;17.134;2023-05-10T08:26:16;2.80;;;2.70;;
12407;SDS011;6268;48.188;17.134;2023-05-10T08:28:45;3.60;;;2.90;;
12407;SDS011;6268;48.188;17.134;2023-05-10T08:31:14;3.70;;;2.88;;
12407;SDS011;6268;48.188;17.134;2023-05-10T08:33:43;3.22;;;2.70;;
12407;SDS011;6268;48.188;17.134;2023-05-10T08:36:12;3.60;;;2.97;;
12407;SDS011;6268;48.188;17.134;2023-05-10T08:38:46;3.13;;;2.83;;
12407;SDS011;6268;48.188;17.134;2023-05-10T08:41:17;3.20;;;3.00;;
12407;SDS011;6268;48.188;17.134;2023-05-10T08:43:48;5.30;;;3.10;;
12407;SDS011;6268;48.188;17.134;2023-05-10T08:46:18;14.35;;;11.90;;
12407;SDS011;6268;48.188;17.134;2023-05-10T08:48:50;3.08;;;2.80;;
12407;SDS011;6268;48.188;17.134;2023-05-10T08:51:23;7.97;;;6.50;;
12407;SDS011;6268;48.188;17.134;2023-05-10T08:53:54;9.85;;;8.40;;
12407;SDS011;6268;48.188;17.134;2023-05-10T08:56:25;9.48;;;8.43;;
12407;SDS011;6268;48.188;17.134;2023-05-10T08:58:54;3.90;;;3.58;;
12407;SDS011;6268;48.188;17.134;2023-05-10T09:01:24;4.65;;;2.78;;
12407;SDS011;6268;48.188;17.134;2023-05-10T09:03:56;2.67;;;2.47;;
12407;SDS011;6268;48.188;17.134;2023-05-10T09:06:25;4.53;;;3.03;;
12407;SDS011;6268;48.188;17.134;2023-05-10T09:08:55;2.58;;;2.47;;
12407;SDS011;6268;48.188;17.134;2023-05-10T09:11:26;2.53;;;2.33;;
12407;SDS011;6268;48.188;17.134;2023-05-10T09:13:56;2.83;;;2.63;;
12407;SDS011;6268;48.188;17.134;2023-05-10T09:16:25;3.72;;;3.45;;
12407;SDS011;6268;48.188;17.134;2023-05-10T09:18:54;3.33;;;3.03;;
12407;SDS011;6268;48.188;17.134;2023-05-10T09:21:22;3.58;;;2.58;;
12407;SDS011;6268;48.188;17.134;2023-05-10T09:23:51;4.82;;;2.85;;
12407;SDS011;6268;48.188;17.134;2023-05-10T09:26:23;4.50;;;3.55;;
12407;SDS011;6268;48.188;17.134;2023-05-10T09:28:55;2.63;;;2.42;;
12407;SDS011;6268;48.188;17.134;2023-05-10T09:31:42;5.22;;;3.00;;
12407;SDS011;6268;48.188;17.134;2023-05-10T09:34:17;3.78;;;2.95;;
12407;SDS011;6268;48.188;17.134;2023-05-10T09:36:51;3.25;;;3.03;;
12407;SDS011;6268;48.188;17.134;2023-05-10T09:39:32;3.47;;;2.80;;
12407;SDS011;6268;48.188;17.134;2023-05-10T09:42:04;2.67;;;2.10;;
12407;SDS011;6268;48.188;17.134;2023-05-10T09:44:35;3.33;;;2.47;;
12407;SDS011;6268;48.188;17.134;2023-05-10T09:47:04;3.80;;;2.42;;
12407;SDS011;6268;48.188;17.134;2023-05-10T09:49:33;4.50;;;2.75;;
12407;SDS011;6268;48.188;17.134;2023-05-10T09:52:03;2.83;;;2.63;;
12407;SDS011;6268;48.188;17.134;2023-05-10T09:54:34;4.97;;;4.57;;
12407;SDS011;6268;48.188;17.134;2023-05-10T09:57:04;7.82;;;7.05;;
12407;SDS011;6268;48.188;17.134;2023-05-10T09:59:32;3.80;;;3.50;;
12407;SDS011;6268;48.188;17.134;2023-05-10T10:02:02;3.08;;;2.33;;
12407;SDS011;6268;48.188;17.134;2023-05-10T10:04:31;2.35;;;2.08;;
12407;SDS011;6268;48.188;17.134;2023-05-10T10:07:06;2.63;;;2.42;;
12407;SDS011;6268;48.188;17.134;2023-05-10T10:09:35;2.28;;;2.08;;
12407;SDS011;6268;48.188;17.134;2023-05-10T10:12:05;4.20;;;2.30;;
12407;SDS011;6268;48.188;17.134;2023-05-10T10:14:35;3.83;;;2.60;;
12407;SDS011;6268;48.188;17.134;2023-05-10T10:17:03;2.38;;;2.17;;
12407;SDS011;6268;48.188;17.134;2023-05-10T10:19:34;2.63;;;2.50;;
12407;SDS011;6268;48.188;17.134;2023-05-10T10:22:04;2.63;;;2.42;;
12407;SDS011;6268;48.188;17.134;2023-05-10T10:24:33;3.42;;;2.50;;
12407;SDS011;6268;48.188;17.134;2023-05-10T10:27:04;5.47;;;2.47;;
12407;SDS011;6268;48.188;17.134;2023-05-10T10:29:50;2.65;;;2.33;;
12407;SDS011;6268;48.188;17.134;2023-05-10T10:32:42;2.42;;;2.03;;
12407;SDS011;6268;48.188;17.134;2023-05-10T10:35:53;2.40;;;2.28;;
12407;SDS011;6268;48.188;17.134;2023-05-10T10:38:25;2.03;;;1.92;;
12407;SDS011;6268;48.188;17.134;2023-05-10T10:41:09;3.17;;;2.47;;
12407;SDS011;6268;48.188;17.134;2023-05-10T10:47:05;5.65;;;2.55;;
12407;SDS011;6268;48.188;17.134;2023-05-10T10:49:52;5.55;;;2.40;;
12407;SDS011;6268;48.188;17.134;2023-05-10T10:52:32;2.88;;;2.45;;
12407;SDS011;6268;48.188;17.134;2023-05-10T10:55:03;2.33;;;2.13;;
12407;SDS011;6268;48.188;17.134;2023-05-10T10:57:45;2.53;;;2.40;;
12407;SDS011;6268;48.188;17.134;2023-05-10T11:03:05;5.53;;;2.38;;
12407;SDS011;6268;48.188;17.134;2023-05-10T11:05:40;3.92;;;3.55;;
12407;SDS011;6268;48.188;17.134;2023-05-10T11:08:11;8.02;;;6.80;;
12407;SDS011;6268;48.188;17.134;2023-05-10T11:10:49;2.60;;;2.40;;
12407;SDS011;6268;48.188;17.134;2023-05-10T11:13:40;2.67;;;2.17;;
12407;SDS011;6268;48.188;17.134;2023-05-10T11:16:18;2.10;;;1.90;;
12407;SDS011;6268;48.188;17.134;2023-05-10T11:18:57;2.25;;;2.15;;
12407;SDS011;6268;48.188;17.134;2023-05-10T11:21:30;3.47;;;2.53;;
12407;SDS011;6268;48.188;17.134;2023-05-10T11:24:00;2.58;;;2.20;;
12407;SDS011;6268;48.188;17.134;2023-05-10T11:26:33;3.35;;;2.05;;
12407;SDS011;6268;48.188;17.134;2023-05-10T11:29:03;3.10;;;2.03;;
12407;SDS011;6268;48.188;17.134;2023-05-10T11:31:33;3.38;;;2.20;;
12407;SDS011;6268;48.188;17.134;2023-05-10T11:34:03;2.25;;;2.15;;
12407;SDS011;6268;48.188;17.134;2023-05-10T11:36:32;2.22;;;2.03;;
12407;SDS011;6268;48.188;17.134;2023-05-10T11:39:04;2.30;;;2.10;;
12407;SDS011;6268;48.188;17.134;2023-05-10T11:41:33;2.20;;;2.10;;
12407;SDS011;6268;48.188;17.134;2023-05-10T11:44:02;5.28;;;2.28;;
12407;SDS011;6268;48.188;17.134;2023-05-10T11:46:31;7.47;;;2.00;;
12407;SDS011;6268;48.188;17.134;2023-05-10T11:49:01;2.40;;;2.20;;
12407;SDS011;6268;48.188;17.134;2023-05-10T11:51:33;3.20;;;1.83;;
12407;SDS011;6268;48.188;17.134;2023-05-10T11:54:05;4.07;;;2.13;;
12407;SDS011;6268;48.188;17.134;2023-05-10T11:56:36;2.10;;;1.98;;
12407;SDS011;6268;48.188;17.134;2023-05-10T11:59:05;2.65;;;1.83;;
12407;SDS011;6268;48.188;17.134;2023-05-10T12:01:36;2.53;;;1.83;;
12407;SDS011;6268;48.188;17.134;2023-05-10T12:04:05;1.77;;;1.67;;
12407;SDS011;6268;48.188;17.134;2023-05-10T12:06:37;2.83;;;1.67;;
12407;SDS011;6268;48.188;17.134;2023-05-10T12:09:08;3.63;;;1.65;;
12407;SDS011;6268;48.188;17.134;2023-05-10T12:11:37;1.65;;;1.42;;
12407;SDS011;6268;48.188;17.134;2023-05-10T12:14:10;1.88;;;1.58;;
12407;SDS011;6268;48.188;17.134;2023-05-10T12:16:40;2.30;;;1.45;;
12407;SDS011;6268;48.188;17.134;2023-05-10T12:19:11;2.83;;;1.83;;
12407;SDS011;6268;48.188;17.134;2023-05-10T12:21:40;1.27;;;1.27;;
12407;SDS011;6268;48.188;17.134;2023-05-10T12:24:09;3.38;;;1.88;;
12407;SDS011;6268;48.188;17.134;2023-05-10T12:26:38;2.25;;;1.90;;
12407;SDS011;6268;48.188;17.134;2023-05-10T12:29:24;4.03;;;1.90;;
12407;SDS011;6268;48.188;17.134;2023-05-10T12:31:59;1.55;;;1.45;;
12407;SDS011;6268;48.188;17.134;2023-05-10T12:34:30;6.57;;;2.10;;
12407;SDS011;6268;48.188;17.134;2023-05-10T12:37:00;3.00;;;2.08;;
12407;SDS011;6268;48.188;17.134;2023-05-10T12:39:40;3.22;;;1.70;;
12407;SDS011;6268;48.188;17.134;2023-05-10T12:42:10;4.18;;;1.58;;
12407;SDS011;6268;48.188;17.134;2023-05-10T12:44:39;3.15;;;1.30;;
12407;SDS011;6268;48.188;17.134;2023-05-10T12:47:09;2.45;;;1.83;;
12407;SDS011;6268;48.188;17.134;2023-05-10T12:49:38;1.70;;;1.60;;
12407;SDS011;6268;48.188;17.134;2023-05-10T12:52:06;2.22;;;1.55;;
12407;SDS011;6268;48.188;17.134;2023-05-10T12:54:35;9.93;;;1.90;;
12407;SDS011;6268;48.188;17.134;2023-05-10T12:57:04;2.38;;;1.63;;
12407;SDS011;6268;48.188;17.134;2023-05-10T12:59:33;1.20;;;1.20;;
12407;SDS011;6268;48.188;17.134;2023-05-10T13:02:03;1.70;;;1.60;;
12407;SDS011;6268;48.188;17.134;2023-05-10T13:04:34;1.85;;;1.67;;
12407;SDS011;6268;48.188;17.134;2023-05-10T13:07:04;2.13;;;1.60;;
12407;SDS011;6268;48.188;17.134;2023-05-10T13:09:33;1.80;;;1.70;;
12407;SDS011;6268;48.188;17.134;2023-05-10T13:12:02;1.90;;;1.50;;
12407;SDS011;6268;48.188;17.134;2023-05-10T13:14:33;1.77;;;1.20;;
12407;SDS011;6268;48.188;17.134;2023-05-10T13:17:01;3.13;;;1.80;;
12407;SDS011;6268;48.188;17.134;2023-05-10T13:19:30;2.58;;;1.77;;
12407;SDS011;6268;48.188;17.134;2023-05-10T13:22:00;1.27;;;1.23;;
12407;SDS011;6268;48.188;17.134;2023-05-10T13:24:29;2.50;;;1.55;;
12407;SDS011;6268;48.188;17.134;2023-05-10T13:26:58;1.55;;;1.45;;
12407;SDS011;6268;48.188;17.134;2023-05-10T13:29:26;3.40;;;1.63;;
12407;SDS011;6268;48.188;17.134;2023-05-10T13:31:55;1.92;;;1.83;;
12407;SDS011;6268;48.188;17.134;2023-05-10T13:34:24;1.60;;;1.50;;
12407;SDS011;6268;48.188;17.134;2023-05-10T13:36:53;3.00;;;1.70;;
12407;SDS011;6268;48.188;17.134;2023-05-10T13:39:23;3.20;;;1.55;;
12407;SDS011;6268;48.188;17.134;2023-05-10T13:41:52;3.75;;;1.60;;
12407;SDS011;6268;48.188;17.134;2023-05-10T13:44:21;4.40;;;2.45;;
12407;SDS011;6268;48.188;17.134;2023-05-10T13:46:50;4.20;;;3.80;;
12407;SDS011;6268;48.188;17.134;2023-05-10T13:49:18;5.88;;;5.47;;
12407;SDS011;6268;48.188;17.134;2023-05-10T13:51:48;4.90;;;3.08;;
12407;SDS011;6268;48.188;17.134;2023-05-10T13:54:19;3.63;;;2.10;;
12407;SDS011;6268;48.188;17.134;2023-05-10T13:56:50;2.03;;;1.70;;
12407;SDS011;6268;48.188;17.134;2023-05-10T13:59:18;3.05;;;1.70;;
12407;SDS011;6268;48.188;17.134;2023-05-10T14:01:47;1.50;;;1.40;;
12407;SDS011;6268;48.188;17.134;2023-05-10T14:04:16;4.72;;;1.95;;
12407;SDS011;6268;48.188;17.134;2023-05-10T14:06:45;5.10;;;1.90;;
12407;SDS011;6268;48.188;17.134;2023-05-10T14:09:13;1.98;;;1.70;;
12407;SDS011;6268;48.188;17.134;2023-05-10T14:11:42;2.00;;;1.60;;
12407;SDS011;6268;48.188;17.134;2023-05-10T14:14:12;2.15;;;1.70;;
12407;SDS011;6268;48.188;17.134;2023-05-10T14:16:42;2.35;;;1.73;;
12407;SDS011;6268;48.188;17.134;2023-05-10T14:19:12;2.88;;;1.60;;
12407;SDS011;6268;48.188;17.134;2023-05-10T14:21:41;2.80;;;1.38;;
12407;SDS011;6268;48.188;17.134;2023-05-10T14:24:10;2.75;;;1.60;;
12407;SDS011;6268;48.188;17.134;2023-05-10T14:26:39;1.67;;;1.58;;
12407;SDS011;6268;48.188;17.134;2023-05-10T14:29:08;1.90;;;1.80;;
12407;SDS011;6268;48.188;17.134;2023-05-10T14:31:39;2.03;;;1.92;;
12407;SDS011;6268;48.188;17.134;2023-05-10T14:34:08;2.63;;;1.70;;
12407;SDS011;6268;48.188;17.134;2023-05-10T14:36:39;2.20;;;2.03;;
12407;SDS011;6268;48.188;17.134;2023-05-10T14:39:08;4.35;;;1.50;;
12407;SDS011;6268;48.188;17.134;2023-05-10T14:41:39;4.10;;;2.28;;
12407;SDS011;6268;48.188;17.134;2023-05-10T14:44:09;2.25;;;1.98;;
12407;SDS011;6268;48.188;17.134;2023-05-10T14:46:39;1.63;;;1.52;;
12407;SDS011;6268;48.188;17.134;2023-05-10T14:49:08;1.70;;;1.60;;
12407;SDS011;6268;48.188;17.134;2023-05-10T14:51:37;1.95;;;1.80;;
12407;SDS011;6268;48.188;17.134;2023-05-10T14:54:05;1.98;;;1.50;;
12407;SDS011;6268;48.188;17.134;2023-05-10T14:56:34;2.08;;;1.70;;
12407;SDS011;6268;48.188;17.134;2023-05-10T14:59:03;4.18;;;1.63;;
12407;SDS011;6268;48.188;17.134;2023-05-10T15:01:32;1.60;;;1.50;;
12407;SDS011;6268;48.188;17.134;2023-05-10T15:04:05;2.00;;;1.77;;
12407;SDS011;6268;48.188;17.134;2023-05-10T15:06:34;1.80;;;1.70;;
12407;SDS011;6268;48.188;17.134;2023-05-10T15:09:03;1.58;;;1.48;;
12407;SDS011;6268;48.188;17.134;2023-05-10T15:11:32;1.67;;;1.58;;
12407;SDS011;6268;48.188;17.134;2023-05-10T15:14:01;2.10;;;1.42;;
12407;SDS011;6268;48.188;17.134;2023-05-10T15:16:30;1.85;;;1.40;;
12407;SDS011;6268;48.188;17.134;2023-05-10T15:19:01;1.58;;;1.40;;
12407;SDS011;6268;48.188;17.134;2023-05-10T15:21:31;1.65;;;1.30;;
12407;SDS011;6268;48.188;17.134;2023-05-10T15:24:05;1.70;;;1.60;;